createdAt,value
2019-03-23T00:01:47.496Z,226.98
2019-03-23T00:04:15.991Z,249.90
2019-03-23T00:06:44.524Z,237.05
2019-03-23T00:09:13.043Z,235.95
2019-03-23T00:11:41.532Z,219.90
2019-03-23T00:14:10.056Z,275.75
2019-03-23T00:16:38.548Z,328.90
2019-03-23T00:19:07.091Z,339.50
2019-03-23T00:21:35.589Z,299.45
2019-03-23T00:24:04.164Z,264.60
2019-03-23T00:26:32.690Z,264.52
2019-03-23T00:29:01.183Z,338.80
2019-03-23T00:31:29.709Z,290.38
2019-03-23T00:33:58.206Z,267.27
2019-03-23T00:36:26.712Z,258.75
2019-03-23T00:38:55.232Z,250.35
2019-03-23T00:41:23.724Z,208.75
2019-03-23T00:43:52.245Z,222.20
2019-03-23T00:46:20.735Z,227.38
2019-03-23T00:48:49.266Z,258.40
2019-03-23T00:51:17.791Z,272.37
2019-03-23T00:53:46.280Z,312.27
2019-03-23T00:56:17.463Z,298.50
2019-03-23T00:58:45.998Z,359.77
2019-03-23T01:01:14.668Z,347.07
2019-03-23T01:03:43.196Z,327.65
2019-03-23T01:06:11.724Z,318.70
2019-03-23T01:08:40.223Z,301.40
2019-03-23T01:11:08.726Z,300.32
2019-03-23T01:13:37.298Z,304.63
2019-03-23T01:16:05.859Z,308.00
2019-03-23T01:18:34.553Z,282.25
2019-03-23T01:21:03.054Z,278.75
2019-03-23T01:23:31.564Z,259.80
2019-03-23T01:26:00.101Z,229.18
2019-03-23T01:28:28.660Z,248.38
2019-03-23T01:30:57.190Z,242.57
2019-03-23T01:33:25.680Z,233.28
2019-03-23T01:35:54.183Z,216.42
2019-03-23T01:38:22.760Z,216.42
2019-03-23T01:40:51.282Z,211.35
2019-03-23T01:43:19.782Z,193.75
2019-03-23T01:45:48.282Z,202.35
2019-03-23T01:48:16.795Z,195.20
2019-03-23T01:50:45.360Z,189.80
2019-03-23T01:53:13.854Z,187.57
2019-03-23T01:55:42.362Z,197.28
2019-03-23T01:58:10.925Z,203.85
2019-03-23T02:00:39.415Z,208.90
2019-03-23T02:03:07.930Z,200.72
2019-03-23T02:05:36.417Z,217.37
2019-03-23T02:08:05.010Z,227.70
2019-03-23T02:10:33.524Z,233.60
2019-03-23T02:13:01.997Z,239.10
2019-03-23T02:15:30.496Z,276.67
2019-03-23T02:17:58.979Z,299.92
2019-03-23T02:20:27.664Z,258.85
2019-03-23T02:22:56.151Z,297.00
2019-03-23T02:25:24.637Z,299.20
2019-03-23T02:27:53.130Z,290.07
2019-03-23T02:30:21.644Z,282.02
2019-03-23T02:32:50.166Z,283.10
2019-03-23T02:35:18.713Z,286.77
2019-03-23T02:37:47.199Z,262.02
2019-03-23T02:40:15.701Z,271.10
2019-03-23T02:42:44.217Z,266.82
2019-03-23T02:45:13.451Z,262.68
2019-03-23T02:47:41.977Z,228.30
2019-03-23T02:50:11.103Z,233.17
2019-03-23T02:52:39.649Z,225.35
2019-03-23T02:55:11.809Z,223.87
2019-03-23T02:57:40.348Z,237.78
2019-03-23T03:00:13.797Z,240.77
2019-03-23T03:02:42.315Z,242.62
2019-03-23T03:05:11.229Z,274.62
2019-03-23T03:07:43.250Z,277.43
2019-03-23T03:10:13.348Z,304.77
2019-03-23T03:12:41.844Z,305.30
2019-03-23T03:15:10.638Z,333.38
2019-03-23T03:17:39.157Z,330.65
2019-03-23T03:20:10.058Z,345.37
2019-03-23T03:22:38.542Z,329.03
2019-03-23T03:25:08.403Z,298.20
2019-03-23T03:27:36.964Z,310.38
2019-03-23T03:30:10.986Z,351.23
2019-03-23T03:32:39.599Z,297.75
2019-03-23T03:35:08.467Z,266.98
2019-03-23T03:37:36.951Z,283.75
2019-03-23T03:40:09.086Z,272.42
2019-03-23T03:42:37.680Z,297.40
2019-03-23T03:45:07.812Z,289.57
2019-03-23T03:47:36.330Z,282.40
2019-03-23T03:50:09.053Z,276.32
2019-03-23T03:52:37.656Z,271.68
2019-03-23T03:55:07.753Z,305.07
2019-03-23T03:57:36.369Z,274.07
2019-03-23T04:00:07.518Z,265.27
2019-03-23T04:02:36.034Z,247.12
2019-03-23T04:05:05.651Z,263.60
2019-03-23T04:07:34.150Z,266.05
2019-03-23T04:10:02.717Z,291.98
2019-03-23T04:12:31.245Z,323.35
2019-03-23T04:14:59.699Z,362.93
2019-03-23T04:17:28.191Z,315.15
2019-03-23T04:19:56.690Z,316.27
2019-03-23T04:22:25.191Z,349.50
2019-03-23T04:24:53.675Z,353.62
2019-03-23T04:27:22.193Z,317.18
2019-03-23T04:29:50.689Z,351.85
2019-03-23T04:32:19.187Z,352.27
2019-03-23T04:34:47.673Z,405.05
2019-03-23T04:37:16.187Z,334.95
2019-03-23T04:39:44.711Z,431.30
2019-03-23T04:42:13.211Z,465.25
2019-03-23T04:44:41.695Z,498.62
2019-03-23T04:47:10.216Z,520.33
2019-03-23T04:49:38.720Z,635.55
2019-03-23T04:52:07.232Z,558.17
2019-03-23T04:54:38.848Z,505.65
2019-03-23T04:57:06.741Z,408.90
2019-03-23T04:59:35.244Z,461.70
2019-03-23T05:02:04.101Z,422.70
2019-03-23T05:04:32.598Z,550.62
2019-03-23T05:07:01.081Z,680.20
2019-03-23T05:09:29.635Z,417.45
2019-03-23T05:11:58.119Z,497.95
2019-03-23T05:14:26.610Z,392.87
2019-03-23T05:16:55.112Z,396.30
2019-03-23T05:19:23.623Z,507.77
2019-03-23T05:21:52.151Z,452.23
2019-03-23T05:24:20.640Z,439.78
2019-03-23T05:26:49.221Z,557.25
2019-03-23T05:29:17.715Z,454.68
2019-03-23T05:31:46.197Z,531.60
2019-03-23T05:34:14.683Z,540.38
2019-03-23T05:36:43.184Z,394.00
2019-03-23T05:39:11.711Z,584.87
2019-03-23T05:41:40.199Z,497.48
2019-03-23T05:44:08.690Z,494.05
2019-03-23T05:46:37.207Z,504.32
2019-03-23T05:49:05.702Z,357.95
2019-03-23T05:51:34.210Z,321.48
2019-03-23T05:54:02.696Z,520.25
2019-03-23T05:56:31.227Z,488.12
2019-03-23T05:58:59.712Z,570.98
2019-03-23T06:01:28.198Z,382.70
2019-03-23T06:03:56.813Z,363.62
2019-03-23T06:06:25.299Z,376.90
2019-03-23T06:08:55.240Z,433.95
2019-03-23T06:11:25.004Z,344.85
2019-03-23T06:13:53.498Z,334.40
2019-03-23T06:16:22.047Z,419.05
2019-03-23T06:18:50.566Z,423.62
2019-03-23T06:21:19.081Z,369.87
2019-03-23T06:23:47.570Z,400.20
2019-03-23T06:26:16.094Z,334.05
2019-03-23T06:28:44.576Z,401.10
2019-03-23T06:31:13.098Z,354.80
2019-03-23T06:33:41.588Z,333.02
2019-03-23T06:36:10.122Z,476.10
2019-03-23T06:38:38.620Z,361.50
2019-03-23T06:41:07.133Z,437.02
2019-03-23T06:43:35.659Z,472.20
2019-03-23T06:46:04.212Z,404.25
2019-03-23T06:48:32.730Z,303.65
2019-03-23T06:51:03.203Z,387.52
2019-03-23T06:53:31.436Z,379.38
2019-03-23T06:55:59.951Z,317.43
2019-03-23T06:58:28.455Z,264.10
2019-03-23T07:00:56.955Z,374.62
2019-03-23T07:03:25.444Z,381.73
2019-03-23T07:05:53.958Z,399.12
2019-03-23T07:08:31.515Z,321.05
2019-03-23T07:10:52.663Z,345.17
2019-03-23T07:13:21.181Z,291.63
2019-03-23T07:15:49.665Z,276.27
2019-03-23T07:18:18.193Z,316.85
2019-03-23T07:20:46.684Z,299.65
2019-03-23T07:23:16.819Z,251.67
2019-03-23T07:25:45.299Z,258.73
2019-03-23T07:28:13.833Z,270.50
2019-03-23T07:30:42.401Z,261.95
2019-03-23T07:33:10.887Z,292.10
2019-03-23T07:35:39.389Z,260.50
2019-03-23T07:38:07.874Z,249.12
2019-03-23T07:40:36.468Z,270.90
2019-03-23T07:43:05.047Z,257.75
2019-03-23T07:45:33.537Z,240.28
2019-03-23T07:48:02.038Z,248.45
2019-03-23T07:50:30.541Z,260.63
2019-03-23T07:52:59.056Z,231.87
2019-03-23T07:55:27.543Z,230.85
2019-03-23T07:57:56.066Z,260.95
2019-03-23T08:00:24.566Z,242.57
2019-03-23T08:02:53.092Z,231.32
2019-03-23T08:05:21.663Z,229.25
2019-03-23T08:07:50.155Z,252.72
2019-03-23T08:10:32.179Z,253.37
2019-03-23T08:15:29.356Z,303.32
2019-03-23T08:17:58.035Z,404.27
2019-03-23T08:20:26.691Z,284.55
2019-03-23T08:22:55.374Z,277.57
2019-03-23T08:25:23.903Z,396.90
2019-03-23T08:27:52.471Z,464.07
2019-03-23T08:30:20.972Z,271.85
2019-03-23T08:32:49.528Z,248.87
2019-03-23T08:35:18.388Z,239.45
2019-03-23T08:37:46.913Z,248.10
2019-03-23T08:40:15.399Z,201.47
2019-03-23T08:42:43.902Z,255.05
2019-03-23T08:45:12.674Z,206.30
2019-03-23T08:47:41.170Z,279.20
2019-03-23T08:50:09.944Z,220.85
2019-03-23T08:52:38.472Z,241.30
2019-03-23T08:55:07.274Z,234.25
2019-03-23T08:57:35.770Z,211.35
2019-03-23T09:00:07.934Z,220.27
2019-03-23T09:02:36.477Z,243.90
2019-03-23T09:05:06.233Z,192.25
2019-03-23T09:07:34.798Z,200.50
2019-03-23T09:10:05.159Z,213.35
2019-03-23T09:12:33.658Z,212.70
2019-03-23T09:15:02.192Z,215.12
2019-03-23T09:17:30.681Z,214.35
2019-03-23T09:19:59.225Z,214.93
2019-03-23T09:22:27.834Z,204.25
2019-03-23T09:24:57.446Z,197.90
2019-03-23T09:27:25.947Z,182.95
2019-03-23T09:29:56.460Z,201.00
2019-03-23T09:32:24.998Z,213.55
2019-03-23T09:34:53.536Z,203.15
2019-03-23T09:37:22.052Z,190.28
2019-03-23T09:39:50.578Z,194.15
2019-03-23T09:42:19.110Z,199.50
2019-03-23T09:44:47.704Z,233.15
2019-03-23T09:47:17.619Z,195.95
2019-03-23T09:49:46.146Z,170.40
2019-03-23T09:52:16.615Z,196.05
2019-03-23T09:54:45.418Z,187.25
2019-03-23T09:57:13.932Z,186.73
2019-03-23T09:59:42.487Z,205.25
2019-03-23T10:02:11.025Z,174.85
2019-03-23T10:04:39.519Z,160.10
2019-03-23T10:07:08.040Z,158.18
2019-03-23T10:09:38.146Z,168.02
2019-03-23T10:12:06.648Z,152.70
2019-03-23T10:14:35.206Z,137.10
2019-03-23T10:17:03.746Z,147.68
2019-03-23T10:19:32.266Z,156.30
2019-03-23T10:22:00.794Z,172.53
2019-03-23T10:24:29.387Z,148.47
2019-03-23T10:26:57.949Z,150.70
2019-03-23T10:29:26.547Z,151.60
2019-03-23T10:31:55.821Z,152.35
2019-03-23T10:34:24.400Z,153.82
2019-03-23T10:36:53.096Z,146.55
2019-03-23T10:39:21.761Z,135.85
2019-03-23T10:41:50.267Z,131.93
2019-03-23T10:44:18.865Z,125.90
2019-03-23T10:46:47.474Z,145.77
2019-03-23T10:49:16.027Z,155.63
2019-03-23T10:51:44.572Z,140.37
2019-03-23T10:54:13.154Z,128.82
2019-03-23T10:56:41.702Z,122.60
2019-03-23T10:59:10.211Z,127.10
2019-03-23T11:01:38.730Z,117.00
2019-03-23T11:04:07.333Z,102.65
2019-03-23T11:06:35.860Z,111.95
2019-03-23T11:09:06.030Z,135.20
2019-03-23T11:11:34.556Z,110.85
2019-03-23T11:14:03.045Z,109.10
2019-03-23T11:16:31.546Z,126.47
2019-03-23T11:19:00.040Z,124.25
2019-03-23T11:21:28.531Z,104.70
2019-03-23T11:23:57.048Z,101.78
2019-03-23T11:26:28.156Z,123.80
2019-03-23T11:28:56.891Z,107.90
2019-03-23T11:31:25.381Z,93.45
2019-03-23T11:33:53.890Z,90.10
2019-03-23T11:36:22.380Z,98.17
2019-03-23T11:38:50.903Z,83.25
2019-03-23T11:41:19.433Z,104.12
2019-03-23T11:43:47.927Z,91.53
2019-03-23T11:46:17.086Z,81.78
2019-03-23T11:48:45.649Z,165.32
2019-03-23T11:51:14.156Z,169.47
2019-03-23T11:53:42.640Z,59.20
2019-03-23T11:56:11.139Z,49.25
2019-03-23T11:58:39.668Z,51.98
2019-03-23T12:01:08.146Z,94.22
2019-03-23T12:03:36.674Z,62.98
2019-03-23T12:06:05.267Z,53.60
2019-03-23T12:08:33.816Z,92.08
2019-03-23T12:11:03.275Z,133.57
2019-03-23T12:13:31.814Z,63.83
2019-03-23T12:16:00.489Z,92.47
2019-03-23T12:18:28.982Z,79.15
2019-03-23T12:20:57.509Z,82.20
2019-03-23T12:23:26.009Z,64.27
2019-03-23T12:25:55.443Z,124.02
2019-03-23T12:28:23.943Z,74.20
2019-03-23T12:30:52.511Z,58.58
2019-03-23T12:33:21.558Z,57.48
2019-03-23T12:35:50.198Z,63.95
2019-03-23T12:38:18.781Z,47.30
2019-03-23T12:40:47.273Z,55.48
2019-03-23T12:43:16.559Z,56.13
2019-03-23T12:45:45.350Z,50.48
2019-03-23T12:48:13.933Z,56.68
2019-03-23T12:50:42.415Z,75.72
2019-03-23T12:53:10.930Z,87.37
2019-03-23T12:55:39.414Z,59.73
2019-03-23T12:58:07.930Z,51.98
2019-03-23T13:00:36.422Z,62.88
2019-03-23T13:03:04.920Z,67.05
2019-03-23T13:05:33.447Z,83.85
2019-03-23T13:08:01.935Z,80.95
2019-03-23T13:10:30.520Z,69.47
2019-03-23T13:12:59.046Z,210.85
2019-03-23T13:15:27.533Z,53.38
2019-03-23T13:17:57.404Z,50.17
2019-03-23T13:20:26.015Z,180.03
2019-03-23T13:22:55.564Z,24.70
2019-03-23T13:25:24.105Z,29.70
2019-03-23T13:27:52.594Z,20.05
2019-03-23T13:30:21.111Z,13.40
2019-03-23T13:32:52.483Z,14.45
2019-03-23T13:35:21.000Z,13.88
2019-03-23T13:37:49.487Z,35.60
2019-03-23T13:40:18.031Z,13.75
2019-03-23T13:42:46.529Z,13.05
2019-03-23T13:45:17.089Z,12.07
2019-03-23T13:47:45.631Z,9.23
2019-03-23T13:50:15.823Z,14.05
2019-03-23T13:52:44.432Z,20.40
2019-03-23T13:55:24.637Z,16.17
2019-03-23T13:57:53.156Z,25.52
2019-03-23T14:00:21.645Z,18.67
2019-03-23T14:02:51.951Z,23.32
2019-03-23T14:05:20.471Z,25.05
2019-03-23T14:07:48.984Z,24.75
2019-03-23T14:10:17.496Z,25.82
2019-03-23T14:12:45.984Z,24.37
2019-03-23T14:15:14.535Z,59.10
2019-03-23T14:17:43.053Z,29.63
2019-03-23T14:20:11.677Z,27.25
2019-03-23T14:22:40.184Z,26.20
2019-03-23T14:25:08.810Z,31.95
2019-03-23T14:27:37.346Z,28.00
2019-03-23T14:30:09.383Z,28.50
2019-03-23T14:32:37.971Z,29.30
2019-03-23T14:35:07.231Z,27.95
2019-03-23T14:37:35.884Z,27.22
2019-03-23T14:40:07.925Z,21.25
2019-03-23T14:42:37.199Z,20.23
2019-03-23T14:45:08.884Z,14.90
2019-03-23T14:47:37.405Z,83.03
2019-03-23T14:50:07.033Z,19.62
2019-03-23T14:52:35.725Z,16.32
2019-03-23T14:55:04.986Z,27.15
2019-03-23T14:57:33.512Z,15.20
2019-03-23T15:00:02.033Z,44.90
2019-03-23T15:02:30.530Z,23.02
2019-03-23T15:04:59.026Z,49.90
2019-03-23T15:07:27.610Z,37.00
2019-03-23T15:09:56.103Z,72.30
2019-03-23T15:12:24.618Z,18.52
2019-03-23T15:14:53.112Z,27.60
2019-03-23T15:17:21.622Z,46.20
2019-03-23T15:19:50.126Z,15.78
2019-03-23T15:22:18.616Z,17.67
2019-03-23T15:24:47.137Z,28.75
2019-03-23T15:27:15.617Z,42.98
2019-03-23T15:29:44.146Z,28.57
2019-03-23T15:32:12.627Z,87.62
2019-03-23T15:34:41.110Z,51.33
2019-03-23T15:37:09.617Z,81.00
2019-03-23T15:39:38.099Z,24.55
2019-03-23T15:42:06.633Z,25.65
2019-03-23T15:44:35.147Z,47.62
2019-03-23T15:47:03.646Z,91.90
2019-03-23T15:49:32.161Z,61.83
2019-03-23T15:52:00.645Z,27.00
2019-03-23T15:54:29.153Z,38.55
2019-03-23T15:56:57.750Z,39.38
2019-03-23T15:59:26.263Z,35.48
2019-03-23T16:01:54.781Z,37.33
2019-03-23T16:04:23.269Z,36.40
2019-03-23T16:06:51.769Z,41.02
2019-03-23T16:09:20.292Z,155.30
2019-03-23T16:11:48.781Z,57.75
2019-03-23T16:14:17.310Z,63.50
2019-03-23T16:16:45.807Z,215.68
2019-03-23T16:19:14.535Z,108.95
2019-03-23T16:21:43.029Z,71.40
2019-03-23T16:24:11.512Z,101.90
2019-03-23T16:26:40.036Z,116.47
2019-03-23T16:29:09.669Z,142.82
2019-03-23T16:31:38.424Z,117.22
2019-03-23T16:34:06.914Z,148.13
2019-03-23T16:36:35.437Z,118.40
2019-03-23T16:39:05.104Z,136.68
2019-03-23T16:41:33.907Z,291.82
2019-03-23T16:44:02.510Z,262.68
2019-03-23T16:46:30.992Z,197.43
2019-03-23T16:49:00.401Z,299.12
2019-03-23T16:51:28.999Z,213.85
2019-03-23T16:53:57.526Z,286.15
2019-03-23T16:56:26.016Z,281.87
2019-03-23T16:58:54.604Z,278.55
2019-03-23T17:01:23.132Z,241.68
2019-03-23T17:03:51.619Z,194.22
2019-03-23T17:06:20.127Z,149.77
2019-03-23T17:08:48.611Z,117.97
2019-03-23T17:11:17.130Z,135.70
2019-03-23T17:13:45.630Z,159.35
2019-03-23T17:16:14.160Z,621.08
2019-03-23T17:18:43.191Z,1183.00
2019-03-23T17:21:11.685Z,982.95
2019-03-23T17:23:40.189Z,665.10
2019-03-23T17:26:08.713Z,629.02
2019-03-23T17:28:37.201Z,526.15
2019-03-23T17:31:05.708Z,530.22
2019-03-23T17:33:34.196Z,517.12
2019-03-23T17:36:02.797Z,538.70
2019-03-23T17:38:31.287Z,443.25
2019-03-23T17:40:59.811Z,337.48
2019-03-23T17:43:28.351Z,342.02
2019-03-23T17:45:56.878Z,402.52
2019-03-23T17:48:25.375Z,470.70
2019-03-23T17:50:53.881Z,450.62
2019-03-23T17:53:22.878Z,504.02
2019-03-23T17:55:51.370Z,575.25
2019-03-23T17:58:19.895Z,641.88
2019-03-23T18:00:48.481Z,582.80
2019-03-23T18:03:21.487Z,580.50
2019-03-23T18:05:50.095Z,581.55
2019-03-23T18:08:18.667Z,543.87
2019-03-23T18:10:47.210Z,430.48
2019-03-23T18:13:16.692Z,341.35
2019-03-23T18:15:45.422Z,354.82
2019-03-23T18:18:14.252Z,380.02
2019-03-23T18:20:42.767Z,430.57
2019-03-23T18:23:11.615Z,428.50
2019-03-23T18:25:40.139Z,402.62
2019-03-23T18:28:08.622Z,410.52
2019-03-23T18:30:41.629Z,410.78
2019-03-23T18:33:10.482Z,421.18
2019-03-23T18:35:38.982Z,415.17
2019-03-23T18:38:07.747Z,436.43
2019-03-23T18:40:36.646Z,567.67
2019-03-23T18:43:06.009Z,446.37
2019-03-23T18:45:36.421Z,438.25
2019-03-23T18:48:05.534Z,453.27
2019-03-23T18:50:35.601Z,430.15
2019-03-23T18:53:04.464Z,383.15
2019-03-23T18:55:32.968Z,372.15
2019-03-23T18:58:01.487Z,436.68
2019-03-23T19:00:37.302Z,561.42
2019-03-23T19:03:06.000Z,523.50
2019-03-23T19:05:35.227Z,531.95
2019-03-23T19:08:04.173Z,526.73
2019-03-23T19:10:32.821Z,584.87
2019-03-23T19:13:01.317Z,506.43
2019-03-23T19:15:29.820Z,582.80
2019-03-23T19:17:58.379Z,484.00
2019-03-23T19:20:26.902Z,525.92
2019-03-23T19:22:55.398Z,530.00
2019-03-23T19:25:24.012Z,552.62
2019-03-23T19:27:52.587Z,541.10
2019-03-23T19:30:21.546Z,512.72
2019-03-23T19:32:50.050Z,464.32
2019-03-23T19:35:18.574Z,572.15
2019-03-23T19:37:47.088Z,482.10
2019-03-23T19:40:16.702Z,609.70
2019-03-23T19:42:45.260Z,533.85
2019-03-23T19:45:15.083Z,510.65
2019-03-23T19:47:45.980Z,481.87
2019-03-23T19:50:16.392Z,513.35
2019-03-23T19:52:44.914Z,560.78
2019-03-23T19:55:13.481Z,591.65
2019-03-23T19:57:41.989Z,591.40
2019-03-23T20:00:12.617Z,627.42
2019-03-23T20:02:41.278Z,618.75
2019-03-23T20:05:10.013Z,609.35
2019-03-23T20:07:39.200Z,617.17
2019-03-23T20:10:10.246Z,499.02
2019-03-23T20:12:40.161Z,454.90
2019-03-23T20:15:09.312Z,527.80
2019-03-23T20:17:37.973Z,532.67
2019-03-23T20:20:08.220Z,485.27
2019-03-23T20:22:36.755Z,474.62
2019-03-23T20:25:09.662Z,541.92
2019-03-23T20:27:38.196Z,533.83
2019-03-23T20:30:09.736Z,527.95
2019-03-23T20:32:38.450Z,484.37
2019-03-23T20:35:08.002Z,506.60
2019-03-23T20:37:36.507Z,452.80
2019-03-23T20:40:07.325Z,431.23
2019-03-23T20:42:35.815Z,488.22
2019-03-23T20:45:07.165Z,519.73
2019-03-23T20:47:35.671Z,503.27
2019-03-23T20:50:05.149Z,502.25
2019-03-23T20:52:33.641Z,523.40
2019-03-23T20:55:02.498Z,492.72
2019-03-23T20:57:37.346Z,495.00
2019-03-23T21:00:01.208Z,478.70
2019-03-23T21:02:29.733Z,477.78
2019-03-23T21:04:58.238Z,491.73
2019-03-23T21:07:26.743Z,478.48
2019-03-23T21:09:56.915Z,498.90
2019-03-23T21:12:27.252Z,485.75
2019-03-23T21:14:55.620Z,479.02
2019-03-23T21:17:24.144Z,473.28
2019-03-23T21:19:52.675Z,470.88
2019-03-23T21:22:21.229Z,464.67
2019-03-23T21:24:49.753Z,433.00
2019-03-23T21:27:18.250Z,416.55
2019-03-23T21:29:46.775Z,398.43
2019-03-23T21:32:15.292Z,393.95
2019-03-23T21:34:43.777Z,409.30
2019-03-23T21:37:12.282Z,398.95
2019-03-23T21:39:40.771Z,429.50
2019-03-23T21:42:09.293Z,419.30
2019-03-23T21:44:37.781Z,430.63
2019-03-23T21:47:06.282Z,419.17
2019-03-23T21:49:34.776Z,437.88
2019-03-23T21:52:03.299Z,501.48
2019-03-23T21:54:31.884Z,464.75
2019-03-23T21:57:00.414Z,457.35
2019-03-23T21:59:28.918Z,471.98
2019-03-23T22:01:57.424Z,456.52
2019-03-23T22:04:25.943Z,434.27
2019-03-23T22:06:57.226Z,454.85
2019-03-23T22:09:25.750Z,432.10
2019-03-23T22:11:54.352Z,422.55
2019-03-23T22:14:22.871Z,454.10
2019-03-23T22:16:51.396Z,458.12
2019-03-23T22:19:19.905Z,456.43
2019-03-23T22:21:48.433Z,456.67
2019-03-23T22:24:16.930Z,448.70
2019-03-23T22:26:45.452Z,450.95
2019-03-23T22:29:13.982Z,449.48
2019-03-23T22:31:42.477Z,453.82
2019-03-23T22:34:11.001Z,449.05
2019-03-23T22:36:39.487Z,475.22
2019-03-23T22:39:08.149Z,530.60
2019-03-23T22:41:36.731Z,609.90
2019-03-23T22:44:05.372Z,372.00
2019-03-23T22:46:33.863Z,329.60
2019-03-23T22:49:02.391Z,366.20
2019-03-23T22:51:30.920Z,268.65
2019-03-23T22:53:59.415Z,278.18
2019-03-23T22:56:27.921Z,214.00
2019-03-23T22:58:56.418Z,208.65
2019-03-23T23:01:25.138Z,176.07
2019-03-23T23:03:53.649Z,146.55
2019-03-23T23:06:22.271Z,122.72
2019-03-23T23:08:50.760Z,110.70
2019-03-23T23:11:19.254Z,100.18
2019-03-23T23:13:47.740Z,119.57
2019-03-23T23:16:16.789Z,132.70
2019-03-23T23:18:45.286Z,137.05
2019-03-23T23:21:13.806Z,188.52
2019-03-23T23:23:42.331Z,254.85
2019-03-23T23:26:10.861Z,148.02
2019-03-23T23:28:40.927Z,136.92
2019-03-23T23:31:09.473Z,112.52
2019-03-23T23:33:39.408Z,117.65
2019-03-23T23:36:07.965Z,115.50
2019-03-23T23:38:36.475Z,108.25
2019-03-23T23:41:05.041Z,116.93
2019-03-23T23:43:33.534Z,109.37
2019-03-23T23:46:02.021Z,118.33
2019-03-23T23:48:30.527Z,104.23
2019-03-23T23:50:59.012Z,106.00
2019-03-23T23:53:27.535Z,113.72
2019-03-23T23:55:56.020Z,103.87
2019-03-23T23:58:24.522Z,107.95
